createdAt,value
2019-03-23T00:00:18.708Z,45.47
2019-03-23T00:05:21.420Z,45.73
2019-03-23T00:10:23.858Z,45.97
2019-03-23T00:15:26.590Z,46.13
2019-03-23T00:20:29.269Z,45.63
2019-03-23T00:25:31.741Z,46.90
2019-03-23T00:30:35.088Z,45.83
2019-03-23T00:35:37.873Z,47.33
2019-03-23T00:40:40.322Z,45.93
2019-03-23T00:45:42.974Z,45.77
2019-03-23T00:50:45.397Z,46.77
2019-03-23T00:55:47.679Z,46.87
2019-03-23T01:00:50.172Z,46.63
2019-03-23T01:05:52.558Z,46.47
2019-03-23T01:10:55.639Z,46.00
2019-03-23T01:15:58.107Z,47.97
2019-03-23T01:21:01.158Z,47.10
2019-03-23T01:26:03.963Z,48.07
2019-03-23T01:31:07.242Z,47.37
2019-03-23T01:36:09.757Z,47.10
2019-03-23T01:41:12.556Z,47.70
2019-03-23T01:46:15.205Z,47.73
2019-03-23T01:51:17.985Z,47.93
2019-03-23T01:56:20.411Z,46.77
2019-03-23T02:01:23.808Z,47.63
2019-03-23T02:06:26.916Z,48.20
2019-03-23T02:11:30.040Z,48.70
2019-03-23T02:16:33.052Z,49.60
2019-03-23T02:21:35.685Z,46.77
2019-03-23T02:26:38.081Z,44.47
2019-03-23T02:31:41.404Z,44.63
2019-03-23T02:36:44.348Z,44.93
2019-03-23T02:41:47.379Z,45.70
2019-03-23T02:46:50.758Z,45.87
2019-03-23T02:51:53.738Z,45.20
2019-03-23T02:56:56.675Z,43.97
2019-03-23T03:01:59.694Z,46.00
2019-03-23T03:07:02.709Z,44.83
2019-03-23T03:12:06.076Z,46.97
2019-03-23T03:17:08.841Z,47.03
2019-03-23T03:22:11.226Z,45.43
2019-03-23T03:27:14.370Z,45.90
2019-03-23T03:32:17.200Z,45.87
2019-03-23T03:37:19.652Z,46.27
2019-03-23T03:42:24.474Z,47.63
2019-03-23T03:47:27.637Z,47.90
2019-03-23T03:52:30.428Z,46.77
2019-03-23T03:57:33.450Z,45.40
2019-03-23T04:02:36.546Z,47.33
2019-03-23T04:07:38.934Z,45.80
2019-03-23T04:12:43.181Z,44.30
2019-03-23T04:17:45.956Z,47.43
2019-03-23T04:22:48.858Z,48.23
2019-03-23T04:27:51.866Z,48.57
2019-03-23T04:32:54.225Z,47.10
2019-03-23T04:37:56.660Z,47.67
2019-03-23T04:42:59.160Z,50.03
2019-03-23T04:48:02.029Z,53.03
2019-03-23T04:53:05.175Z,48.80
2019-03-23T04:58:08.128Z,53.63
2019-03-23T05:03:11.192Z,50.57
2019-03-23T05:08:13.540Z,49.63
2019-03-23T05:13:15.884Z,48.13
2019-03-23T05:18:19.228Z,47.90
2019-03-23T05:23:22.279Z,48.07
2019-03-23T05:28:25.240Z,47.30
2019-03-23T05:33:27.956Z,46.97
2019-03-23T05:38:30.965Z,45.97
2019-03-23T05:43:33.472Z,46.23
2019-03-23T05:48:36.225Z,45.27
2019-03-23T05:53:39.658Z,43.73
2019-03-23T05:58:42.364Z,44.23
2019-03-23T06:03:44.989Z,43.20
2019-03-23T06:08:54.988Z,42.43
2019-03-23T06:13:53.373Z,44.70
2019-03-23T06:18:56.060Z,42.70
2019-03-23T06:23:58.740Z,41.37
2019-03-23T06:29:01.792Z,37.90
2019-03-23T06:34:04.884Z,35.23
2019-03-23T06:39:07.708Z,35.27
2019-03-23T06:44:10.729Z,37.13
2019-03-23T06:49:13.692Z,36.07
2019-03-23T06:54:16.149Z,32.97
2019-03-23T06:59:18.680Z,34.27
2019-03-23T07:04:22.233Z,35.43
2019-03-23T07:09:24.700Z,32.23
2019-03-23T07:14:27.056Z,33.40
2019-03-23T07:19:30.051Z,32.53
2019-03-23T07:24:32.918Z,34.17
2019-03-23T07:29:36.401Z,33.43
2019-03-23T07:34:40.537Z,33.87
2019-03-23T07:39:42.927Z,33.17
2019-03-23T07:44:45.729Z,32.60
2019-03-23T07:49:48.406Z,35.57
2019-03-23T07:54:51.140Z,35.30
2019-03-23T07:59:54.521Z,34.90
2019-03-23T08:04:57.451Z,35.90
2019-03-23T08:10:00.461Z,34.73
2019-03-23T08:15:03.545Z,35.30
2019-03-23T08:20:06.469Z,35.67
2019-03-23T08:25:09.082Z,35.10
2019-03-23T08:30:12.125Z,36.40
2019-03-23T08:35:14.840Z,36.07
2019-03-23T08:40:17.557Z,35.87
2019-03-23T08:45:20.669Z,36.70
2019-03-23T08:50:25.050Z,36.03
2019-03-23T08:55:28.090Z,35.30
2019-03-23T09:00:30.768Z,35.63
2019-03-23T09:05:33.533Z,35.13
2019-03-23T09:10:36.011Z,33.67
2019-03-23T09:15:38.423Z,34.80
2019-03-23T09:20:40.877Z,35.17
2019-03-23T09:25:45.683Z,35.47
2019-03-23T09:30:48.684Z,33.50
2019-03-23T09:35:53.444Z,34.20
2019-03-23T09:40:56.165Z,33.97
2019-03-23T09:45:58.673Z,34.03
2019-03-23T09:51:01.120Z,34.87
2019-03-23T09:56:03.654Z,33.83
2019-03-23T10:01:07.209Z,35.23
2019-03-23T10:06:09.662Z,35.27
2019-03-23T10:11:12.248Z,34.27
2019-03-23T10:16:14.665Z,34.43
2019-03-23T10:21:17.167Z,34.90
2019-03-23T10:26:19.499Z,34.63
2019-03-23T10:31:22.439Z,34.53
2019-03-23T10:36:24.780Z,35.53
2019-03-23T10:41:27.219Z,35.90
2019-03-23T10:46:29.959Z,35.23
2019-03-23T10:51:32.295Z,35.23
2019-03-23T10:56:34.971Z,35.37
2019-03-23T11:01:38.901Z,37.03
2019-03-23T11:06:41.363Z,36.77
2019-03-23T11:11:43.849Z,37.90
2019-03-23T11:16:46.993Z,41.03
2019-03-23T11:21:50.296Z,41.07
2019-03-23T11:26:53.096Z,41.10
2019-03-23T11:31:56.612Z,44.43
2019-03-23T11:36:59.064Z,43.27
2019-03-23T11:42:01.805Z,41.93
2019-03-23T11:47:04.487Z,39.27
2019-03-23T11:52:06.975Z,38.47
2019-03-23T11:57:09.352Z,40.93
2019-03-23T12:02:12.808Z,37.43
2019-03-23T12:07:15.149Z,38.57
2019-03-23T12:12:17.496Z,41.67
2019-03-23T12:17:20.403Z,40.70
2019-03-23T12:22:23.576Z,40.53
2019-03-23T12:27:26.013Z,41.07
2019-03-23T12:32:29.036Z,43.10
2019-03-23T12:37:32.051Z,45.40
2019-03-23T12:42:34.740Z,43.90
2019-03-23T12:47:37.571Z,46.83
2019-03-23T12:52:40.054Z,45.57
2019-03-23T12:57:43.517Z,45.10
2019-03-23T13:02:46.968Z,40.33
2019-03-23T13:07:50.194Z,39.20
2019-03-23T13:12:52.980Z,37.80
2019-03-23T13:17:55.884Z,36.13
2019-03-23T13:22:58.584Z,34.83
2019-03-23T13:28:01.200Z,32.27
2019-03-23T13:33:03.819Z,33.27
2019-03-23T13:38:06.453Z,33.23
2019-03-23T13:43:08.884Z,31.33
2019-03-23T13:48:11.647Z,31.77
2019-03-23T13:53:14.756Z,29.37
2019-03-23T13:58:17.776Z,28.33
2019-03-23T14:03:20.488Z,28.37
2019-03-23T14:08:23.169Z,30.07
2019-03-23T14:13:27.818Z,28.67
2019-03-23T14:18:30.795Z,28.27
2019-03-23T14:23:33.829Z,30.13
2019-03-23T14:28:36.913Z,29.00
2019-03-23T14:33:40.310Z,29.40
2019-03-23T14:38:43.056Z,28.20
2019-03-23T14:43:46.427Z,30.07
2019-03-23T14:48:49.349Z,28.53
2019-03-23T14:53:51.738Z,29.80
2019-03-23T14:58:54.949Z,29.57
2019-03-23T15:03:57.540Z,31.43
2019-03-23T15:09:00.097Z,29.80
2019-03-23T15:14:02.580Z,27.83
2019-03-23T15:19:05.225Z,27.20
2019-03-23T15:24:08.556Z,23.53
2019-03-23T15:29:10.891Z,21.83
2019-03-23T15:34:14.244Z,21.30
2019-03-23T15:39:16.699Z,22.43
2019-03-23T15:44:20.220Z,22.27
2019-03-23T15:49:23.323Z,24.13
2019-03-23T15:54:26.340Z,24.83
2019-03-23T15:59:29.611Z,24.57
2019-03-23T16:04:32.289Z,25.03
2019-03-23T16:09:35.011Z,23.87
2019-03-23T16:14:38.487Z,22.47
2019-03-23T16:19:41.881Z,20.70
2019-03-23T16:24:44.783Z,19.67
2019-03-23T16:29:47.538Z,18.30
2019-03-23T16:34:50.045Z,15.23
2019-03-23T16:39:52.780Z,16.30
2019-03-23T16:44:55.246Z,15.23
2019-03-23T16:49:57.663Z,15.37
2019-03-23T16:55:00.433Z,15.07
2019-03-23T17:00:04.711Z,15.13
2019-03-23T17:05:09.415Z,14.30
2019-03-23T17:10:12.044Z,13.63
2019-03-23T17:15:14.821Z,15.10
2019-03-23T17:20:17.620Z,15.83
2019-03-23T17:25:20.487Z,19.27
2019-03-23T17:30:23.202Z,17.10
2019-03-23T17:35:25.906Z,16.70
2019-03-23T17:40:28.543Z,15.57
2019-03-23T17:45:31.002Z,14.70
2019-03-23T17:50:33.568Z,16.10
2019-03-23T17:55:36.158Z,14.27
2019-03-23T18:00:38.989Z,13.43
2019-03-23T18:05:42.387Z,13.33
2019-03-23T18:10:45.066Z,19.77
2019-03-23T18:15:49.314Z,16.13
2019-03-23T18:20:52.214Z,14.70
2019-03-23T18:25:54.576Z,13.93
2019-03-23T18:30:57.015Z,15.97
2019-03-23T18:35:59.381Z,16.23
2019-03-23T18:41:02.505Z,17.63
2019-03-23T18:46:05.017Z,17.50
2019-03-23T18:51:07.536Z,17.93
2019-03-23T18:56:09.917Z,21.27
2019-03-23T19:01:12.652Z,19.87
2019-03-23T19:06:16.324Z,25.93
2019-03-23T19:11:19.017Z,22.90
2019-03-23T19:16:21.992Z,22.57
2019-03-23T19:21:24.460Z,23.67
2019-03-23T19:26:26.978Z,23.07
2019-03-23T19:31:29.428Z,24.00
2019-03-23T19:36:31.813Z,23.90
2019-03-23T19:41:34.309Z,27.37
2019-03-23T19:46:38.586Z,31.03
2019-03-23T19:51:41.695Z,27.33
2019-03-23T19:56:44.487Z,29.30
2019-03-23T20:01:47.493Z,31.37
2019-03-23T20:06:50.369Z,31.57
2019-03-23T20:11:53.503Z,29.80
2019-03-23T20:16:55.961Z,30.73
2019-03-23T20:21:59.207Z,29.43
2019-03-23T20:27:01.647Z,26.73
2019-03-23T20:32:04.179Z,22.60
2019-03-23T20:37:08.321Z,23.97
2019-03-23T20:42:11.424Z,21.77
2019-03-23T20:47:14.253Z,21.30
2019-03-23T20:52:17.810Z,21.40
2019-03-23T20:57:24.145Z,24.17
2019-03-23T21:02:25.108Z,22.57
2019-03-23T21:07:28.611Z,23.17
2019-03-23T21:12:31.384Z,25.37
2019-03-23T21:17:33.844Z,27.63
2019-03-23T21:22:36.577Z,23.67
2019-03-23T21:27:40.009Z,25.20
2019-03-23T21:32:42.977Z,26.73
2019-03-23T21:37:45.861Z,25.90
2019-03-23T21:42:48.872Z,24.90
2019-03-23T21:47:51.941Z,25.43
2019-03-23T21:52:54.364Z,24.17
2019-03-23T21:57:56.925Z,24.77
2019-03-23T22:02:59.747Z,25.53
2019-03-23T22:08:02.131Z,23.63
2019-03-23T22:13:04.588Z,22.90
2019-03-23T22:18:06.932Z,24.13
2019-03-23T22:23:10.376Z,23.00
2019-03-23T22:28:13.441Z,23.87
2019-03-23T22:33:16.578Z,24.63
2019-03-23T22:38:19.686Z,25.10
2019-03-23T22:43:22.184Z,25.30
2019-03-23T22:48:24.711Z,25.93
2019-03-23T22:53:27.176Z,26.83
2019-03-23T22:58:30.371Z,25.40
2019-03-23T23:03:32.869Z,26.30
2019-03-23T23:08:36.761Z,26.93
2019-03-23T23:13:39.228Z,27.53
2019-03-23T23:18:42.084Z,27.90
2019-03-23T23:23:44.551Z,28.10
2019-03-23T23:28:48.416Z,28.47
2019-03-23T23:33:52.989Z,27.33
2019-03-23T23:38:56.134Z,28.00
2019-03-23T23:43:59.790Z,27.57
2019-03-23T23:49:02.843Z,26.93
2019-03-23T23:54:05.864Z,28.13
2019-03-23T23:59:09.124Z,28.03
